Time;durP1;ratioP1;P1;durP2;ratioP2;P2;SDS_P1;SDS_P2;PMS_P1;PMS_P2;Temp;Humidity;BMP_temperature;BMP_pressure;BME280_temperature;BME280_humidity;BME280_pressure;Samples;Min_cycle;Max_cycle;Signal;HPM_P1;HPM_P2
2021/06/25 02:45:12;;;;;;;6.45;4.20;;;22.00;86.00;;;;;;5661543;24;20908;31
2021/06/25 02:47:38;;;;;;;6.90;4.82;;;22.10;85.90;;;;;;4677423;30;20508;-75
2021/06/25 02:50:07;;;;;;;6.60;4.90;;;22.10;85.50;;;;;;4702753;30;20034;-75
2021/06/25 02:52:33;;;;;;;6.63;4.95;;;22.10;85.20;;;;;;4701983;30;20038;-75
2021/06/25 02:54:58;;;;;;;6.28;4.75;;;22.10;84.80;;;;;;4680709;30;20034;-75
2021/06/25 02:57:24;;;;;;;8.10;5.03;;;22.20;84.60;;;;;;4688011;30;20106;-75
2021/06/25 02:59:50;;;;;;;7.35;4.85;;;22.20;84.50;;;;;;4681336;30;20042;-75
2021/06/25 03:02:16;;;;;;;7.22;5.05;;;22.20;84.20;;;;;;4687194;30;20101;-75
2021/06/25 03:04:41;;;;;;;7.68;4.60;;;22.20;84.10;;;;;;4676118;30;20035;-75
2021/06/25 03:07:07;;;;;;;6.47;4.50;;;22.10;84.10;;;;;;4681259;30;20042;-75
2021/06/25 03:09:33;;;;;;;5.57;5.03;;;22.10;84.30;;;;;;4691606;30;20097;-74
2021/06/25 03:11:59;;;;;;;9.85;5.60;;;22.20;84.30;;;;;;4688170;30;20302;-75
2021/06/25 03:14:24;;;;;;;8.23;4.93;;;22.20;84.00;;;;;;4680316;30;20034;-75
2021/06/25 03:16:50;;;;;;;11.85;5.55;;;22.20;84.10;;;;;;4692343;30;20034;-75
2021/06/25 03:19:16;;;;;;;5.25;4.40;;;22.20;84.40;;;;;;4704117;30;20026;-75
2021/06/25 03:21:42;;;;;;;8.77;4.57;;;22.20;84.60;;;;;;4683302;30;20045;-75
2021/06/25 03:24:09;;;;;;;7.05;4.13;;;22.20;84.30;;;;;;4676041;30;20081;-75
2021/06/25 03:26:35;;;;;;;5.70;4.18;;;22.20;84.50;;;;;;4690103;30;20305;-75
2021/06/25 03:29:01;;;;;;;7.93;3.33;;;22.20;84.90;;;;;;4688255;30;20046;-74
2021/06/25 03:31:27;;;;;;;5.13;4.35;;;22.20;84.70;;;;;;4683491;30;20033;-74
2021/06/25 03:33:53;;;;;;;5.22;3.28;;;22.20;84.70;;;;;;4705473;30;20033;-74
2021/06/25 03:36:19;;;;;;;4.30;3.58;;;22.30;84.50;;;;;;4689041;30;20349;-74
2021/06/25 03:38:44;;;;;;;6.45;3.58;;;22.20;84.50;;;;;;4675561;30;20034;-75
2021/06/25 03:41:10;;;;;;;3.85;2.92;;;22.30;84.30;;;;;;4679816;30;20038;-75
2021/06/25 03:43:36;;;;;;;6.80;3.30;;;22.30;84.20;;;;;;4679971;30;20064;-75
2021/06/25 03:46:02;;;;;;;8.85;2.80;;;22.30;84.10;;;;;;4686299;30;20046;-74
2021/06/25 03:48:29;;;;;;;;;;;22.40;84.40;;;;;;4682032;30;20057;-75
2021/06/25 03:50:55;;;;;;;6.73;2.90;;;22.30;84.60;;;;;;4691514;30;20150;-75
2021/06/25 03:53:20;;;;;;;4.60;3.25;;;22.30;84.80;;;;;;4699709;30;20034;-75
2021/06/25 03:58:31;;;;;;;3.90;3.35;;;22.30;85.10;;;;;;4681013;30;20042;-75
2021/06/25 04:00:56;;;;;;;6.03;3.50;;;22.30;85.20;;;;;;4675092;30;20361;-74
2021/06/25 04:03:22;;;;;;;4.45;3.53;;;22.40;85.10;;;;;;4687686;30;20190;-74
2021/06/25 04:05:48;;;;;;;6.18;3.25;;;22.30;85.00;;;;;;4704472;30;20343;-75
2021/06/25 04:08:14;;;;;;;4.90;3.10;;;22.30;85.20;;;;;;4688787;30;20317;-74
2021/06/25 04:10:39;;;;;;;5.82;3.22;;;22.30;85.30;;;;;;4699283;30;20077;-74
2021/06/25 04:13:05;;;;;;;4.65;3.75;;;22.30;85.20;;;;;;4705446;30;20049;-75
2021/06/25 04:15:31;;;;;;;5.95;3.97;;;22.30;84.90;;;;;;4674873;30;20081;-76
2021/06/25 04:17:57;;;;;;;6.05;3.60;;;22.40;84.50;;;;;;4685791;30;20061;-74
2021/06/25 04:20:23;;;;;;;6.85;3.63;;;22.40;84.50;;;;;;4680772;30;20085;-74
2021/06/25 04:22:48;;;;;;;4.40;3.67;;;22.40;84.30;;;;;;4675085;30;20218;-74
2021/06/25 04:25:14;;;;;;;6.30;5.03;;;22.40;84.00;;;;;;4680906;30;20030;-74
2021/06/25 04:27:41;;;;;;;5.30;3.83;;;22.40;83.30;;;;;;4681342;30;20042;-74
2021/06/25 04:30:10;;;;;;;6.40;4.70;;;22.40;83.00;;;;;;4700189;30;20093;-74
2021/06/25 04:32:36;;;;;;;6.45;3.88;;;22.40;83.00;;;;;;4686324;30;20068;-74
2021/06/25 04:35:02;;;;;;;8.43;4.00;;;22.40;82.90;;;;;;4698323;30;20042;-74
2021/06/25 04:37:28;;;;;;;7.32;4.38;;;22.40;82.50;;;;;;4689398;30;20305;-74
2021/06/25 04:39:53;;;;;;;4.72;3.80;;;22.40;82.00;;;;;;4692713;30;20116;-73
2021/06/25 04:42:19;;;;;;;6.88;3.90;;;22.40;82.00;;;;;;4685226;30;20349;-74
2021/06/25 04:44:45;;;;;;;12.18;4.63;;;22.50;82.20;;;;;;4685975;30;20034;-73
2021/06/25 04:47:11;;;;;;;4.43;4.00;;;22.50;81.50;;;;;;4688042;30;20076;-74
2021/06/25 04:49:40;;;;;;;10.05;4.22;;;22.50;81.20;;;;;;4688375;30;20039;-73
2021/06/25 04:52:07;;;;;;;5.15;3.50;;;22.60;81.20;;;;;;4683263;30;20105;-74
2021/06/25 04:54:33;;;;;;;6.80;3.63;;;22.50;81.30;;;;;;4686393;30;20039;-73
2021/06/25 04:56:59;;;;;;;5.20;4.03;;;22.60;81.00;;;;;;4692719;30;20027;-73
2021/06/25 04:59:26;;;;;;;5.13;3.75;;;22.70;80.60;;;;;;4687728;30;20106;-73
2021/06/25 05:01:52;;;;;;;4.90;3.35;;;22.70;80.00;;;;;;4702062;30;20037;-73
2021/06/25 05:04:18;;;;;;;4.88;3.22;;;22.70;80.10;;;;;;4700795;30;20168;-74
2021/06/25 05:06:46;;;;;;;6.45;3.25;;;22.80;79.50;;;;;;4687543;30;20032;-74
2021/06/25 05:09:12;;;;;;;4.55;3.80;;;22.70;79.10;;;;;;4700669;30;20291;-73
2021/06/25 05:11:38;;;;;;;11.95;4.30;;;22.80;79.60;;;;;;4700322;30;20034;-73
2021/06/25 05:14:04;;;;;;;4.10;3.67;;;22.80;79.80;;;;;;4702116;30;20036;-73
2021/06/25 05:16:30;;;;;;;7.30;3.50;;;23.00;79.50;;;;;;4698041;30;20090;-73
2021/06/25 05:18:56;;;;;;;5.18;3.97;;;23.70;76.50;;;;;;4689496;30;20042;-73
2021/06/25 05:21:22;;;;;;;4.68;3.55;;;24.60;74.00;;;;;;4685149;30;20096;-74
2021/06/25 05:23:48;;;;;;;6.32;3.50;;;25.40;70.30;;;;;;4690925;30;20038;-74
2021/06/25 05:26:14;;;;;;;8.93;3.05;;;25.90;68.20;;;;;;4682018;30;20032;-74
2021/06/25 05:28:40;;;;;;;9.93;3.17;;;26.20;65.40;;;;;;4687228;30;20042;-76
2021/06/25 05:31:05;;;;;;;5.47;3.33;;;26.40;65.30;;;;;;4688189;30;20026;-73
2021/06/25 05:33:31;;;;;;;5.95;3.58;;;26.50;64.70;;;;;;4681855;30;20062;-74
2021/06/25 05:35:57;;;;;;;3.53;2.70;;;26.80;63.60;;;;;;4677603;30;20054;-74
2021/06/25 05:38:23;;;;;;;4.65;3.00;;;26.90;62.80;;;;;;4693809;30;20038;-75
2021/06/25 05:40:49;;;;;;;4.13;3.07;;;27.10;63.00;;;;;;4691210;30;20101;-73
2021/06/25 05:43:15;;;;;;;3.47;2.60;;;27.80;62.00;;;;;;4692996;30;20042;-74
2021/06/25 05:45:41;;;;;;;4.23;2.87;;;28.10;60.60;;;;;;4704211;30;20054;-74
2021/06/25 05:48:07;;;;;;;4.13;2.70;;;28.30;59.50;;;;;;4690174;30;20384;-74
2021/06/25 05:50:34;;;;;;;4.85;2.97;;;28.50;59.20;;;;;;4679029;30;20168;-74
2021/06/25 05:53:00;;;;;;;4.00;2.50;;;28.70;57.90;;;;;;4707027;30;20030;-74
2021/06/25 05:55:26;;;;;;;5.68;3.00;;;28.70;58.00;;;;;;4705659;30;20057;-73
2021/06/25 05:57:52;;;;;;;7.87;3.23;;;28.80;57.70;;;;;;4688943;30;20264;-74
2021/06/25 06:00:18;;;;;;;6.00;3.13;;;28.50;56.70;;;;;;4694560;30;20457;-74
2021/06/25 06:02:45;;;;;;;6.97;2.78;;;28.10;58.00;;;;;;4679149;30;20052;-74
2021/06/25 06:05:11;;;;;;;3.83;2.63;;;27.90;59.40;;;;;;4680034;30;20038;-74
2021/06/25 06:07:37;;;;;;;3.70;2.88;;;27.90;60.20;;;;;;4701368;30;20073;-74
2021/06/25 06:10:05;;;;;;;5.90;3.13;;;27.80;60.20;;;;;;4685371;30;20030;-74
2021/06/25 06:12:31;;;;;;;5.13;2.78;;;27.60;60.40;;;;;;4706167;30;20108;-73
2021/06/25 06:14:57;;;;;;;8.73;3.75;;;27.50;61.70;;;;;;4695361;30;20042;-74
2021/06/25 06:17:23;;;;;;;13.50;10.67;;;27.40;61.70;;;;;;4695057;30;20050;-75
2021/06/25 06:19:53;;;;;;;9.67;2.87;;;27.30;61.50;;;;;;4680857;30;20053;-74
2021/06/25 06:33:23;;;;;;;4.35;2.72;;;26.90;62.40;;;;;;4694490;30;20221;-74
2021/06/25 06:35:50;;;;;;;5.15;2.60;;;26.90;62.70;;;;;;4683074;30;20163;-74
2021/06/25 06:38:15;;;;;;;;;;;26.90;62.60;;;;;;4686915;30;20046;-75
2021/06/25 06:40:42;;;;;;;3.60;2.17;;;26.90;63.30;;;;;;4681403;30;19915;-74
2021/06/25 06:43:08;;;;;;;4.47;2.63;;;27.00;62.80;;;;;;4689548;30;20065;-75
2021/06/25 06:45:35;;;;;;;3.27;2.33;;;27.00;62.80;;;;;;4695462;30;20042;-73
2021/06/25 06:48:01;;;;;;;3.08;2.30;;;27.10;62.50;;;;;;4694893;30;20090;-76
2021/06/25 06:50:27;;;;;;;11.50;2.77;;;27.10;62.40;;;;;;4700413;30;20101;-73
2021/06/25 06:52:53;;;;;;;5.07;2.58;;;27.10;62.90;;;;;;4689251;30;20302;-73
2021/06/25 06:55:20;;;;;;;9.02;2.70;;;27.00;61.90;;;;;;4685599;30;20101;-75
2021/06/25 06:57:46;;;;;;;6.65;3.17;;;26.90;62.10;;;;;;4689050;30;20202;-74
2021/06/25 07:00:13;;;;;;;8.20;2.27;;;26.80;62.80;;;;;;4705736;30;20112;-75
2021/06/25 07:02:40;;;;;;;4.28;2.35;;;26.90;62.10;;;;;;4705778;30;20057;-75
2021/06/25 07:05:07;;;;;;;;;;;27.00;62.20;;;;;;4688143;30;20068;-77
2021/06/25 07:07:33;;;;;;;4.38;2.80;;;27.10;61.80;;;;;;4689368;30;20046;-78
2021/06/25 07:09:59;;;;;;;5.65;2.72;;;27.10;61.50;;;;;;4692292;30;20033;-76
2021/06/25 07:12:25;;;;;;;4.40;2.40;;;27.20;61.20;;;;;;4692265;30;20030;-78
2021/06/25 07:14:51;;;;;;;3.10;2.33;;;27.30;61.30;;;;;;4688387;30;20037;-77
2021/06/25 07:17:17;;;;;;;8.85;2.90;;;27.40;61.40;;;;;;4682471;30;20516;-78
2021/06/25 07:19:43;;;;;;;10.00;3.27;;;27.50;60.50;;;;;;4684097;30;20041;-77
2021/06/25 07:22:09;;;;;;;6.10;2.40;;;27.60;60.70;;;;;;4686956;30;20057;-77
2021/06/25 07:24:35;;;;;;;4.28;3.03;;;27.50;60.90;;;;;;4691758;30;20029;-76
2021/06/25 07:27:01;;;;;;;5.72;3.00;;;27.50;60.60;;;;;;4692368;30;20070;-76
2021/06/25 07:29:27;;;;;;;6.80;2.80;;;27.70;60.10;;;;;;4705562;30;20053;-75
2021/06/25 07:31:53;;;;;;;3.87;2.80;;;28.00;59.30;;;;;;4699900;30;20034;-76
2021/06/25 07:34:18;;;;;;;6.53;2.92;;;27.90;59.10;;;;;;4691968;30;20038;-78
2021/06/25 07:36:44;;;;;;;5.27;2.80;;;27.90;59.50;;;;;;4677813;30;20326;-77
2021/06/25 07:39:11;;;;;;;5.60;2.80;;;28.10;60.20;;;;;;4683824;30;20353;-77
2021/06/25 07:41:37;;;;;;;5.70;2.88;;;28.40;58.30;;;;;;4691316;30;20100;-76
2021/06/25 07:44:04;;;;;;;4.22;3.10;;;28.50;57.60;;;;;;4695111;30;20034;-76
2021/06/25 07:46:30;;;;;;;3.60;2.38;;;28.30;56.50;;;;;;4697555;30;20105;-77
2021/06/25 07:48:55;;;;;;;5.68;2.38;;;28.10;58.00;;;;;;4686137;30;20124;-77
2021/06/25 07:51:22;;;;;;;5.97;2.33;;;28.10;58.60;;;;;;4699642;30;20324;-76
2021/06/25 07:53:48;;;;;;;3.83;2.60;;;28.00;58.80;;;;;;4691887;30;20030;-77
2021/06/25 07:56:14;;;;;;;6.60;2.67;;;28.10;57.50;;;;;;4681858;30;20084;-76
2021/06/25 07:58:40;;;;;;;3.03;2.00;;;28.10;57.70;;;;;;4684252;30;20026;-76
2021/06/25 08:01:06;;;;;;;2.08;1.90;;;27.90;57.80;;;;;;4694724;30;20065;-76
2021/06/25 08:03:32;;;;;;;6.78;2.33;;;27.60;57.90;;;;;;4693670;30;20120;-77
2021/06/25 08:05:58;;;;;;;3.33;2.28;;;27.50;59.60;;;;;;4675287;30;20038;-76
2021/06/25 08:08:24;;;;;;;8.23;2.40;;;27.70;59.70;;;;;;4702919;30;20238;-76
2021/06/25 08:10:50;;;;;;;4.90;2.20;;;27.90;57.80;;;;;;4686689;30;20049;-78
2021/06/25 08:13:16;;;;;;;3.57;2.10;;;28.10;57.60;;;;;;4699161;30;20234;-77
2021/06/25 08:15:48;;;;;;;7.10;1.80;;;28.10;57.50;;;;;;4697330;30;20081;-76
2021/06/25 08:18:15;;;;;;;3.80;2.10;;;28.20;56.80;;;;;;4690698;30;20038;-77
2021/06/25 08:20:41;;;;;;;3.22;1.75;;;28.30;57.20;;;;;;4690530;30;20038;-77
2021/06/25 08:23:06;;;;;;;6.47;2.17;;;28.20;57.00;;;;;;4697311;30;20371;-76
2021/06/25 08:25:32;;;;;;;4.00;2.43;;;28.20;56.20;;;;;;4685480;30;20072;-77
2021/06/25 08:27:58;;;;;;;4.47;2.50;;;28.10;56.40;;;;;;4682467;30;20047;-78
2021/06/25 08:30:25;;;;;;;2.17;1.98;;;27.90;57.40;;;;;;4684633;30;20084;-77
2021/06/25 08:32:52;;;;;;;6.15;2.10;;;27.80;58.20;;;;;;4689729;30;20026;-78
2021/06/25 08:35:19;;;;;;;3.40;1.83;;;27.80;57.40;;;;;;4687446;30;20258;-76
2021/06/25 08:37:44;;;;;;;2.50;2.30;;;27.70;58.00;;;;;;4687869;30;20183;-77
2021/06/25 08:40:11;;;;;;;4.60;2.25;;;28.00;57.80;;;;;;4683963;30;20309;-77
2021/06/25 08:42:37;;;;;;;7.75;2.40;;;28.40;56.50;;;;;;4682708;30;20046;-77
2021/06/25 08:45:05;;;;;;;13.52;4.22;;;28.30;56.30;;;;;;4692150;30;20035;-77
2021/06/25 08:47:33;;;;;;;5.13;2.75;;;28.30;57.00;;;;;;4687031;30;20180;-77
2021/06/25 08:50:00;;;;;;;2.28;2.08;;;28.40;57.20;;;;;;4699185;30;20045;-77
2021/06/25 08:52:26;;;;;;;6.38;2.78;;;28.60;56.40;;;;;;4699563;30;20030;-78
2021/06/25 08:54:53;;;;;;;6.97;2.87;;;28.80;55.20;;;;;;4699579;30;20101;-77
2021/06/25 08:57:19;;;;;;;3.38;2.75;;;28.50;55.40;;;;;;4681950;30;20042;-78
2021/06/25 08:59:45;;;;;;;8.37;3.07;;;28.30;56.20;;;;;;4689282;30;20041;-77
2021/06/25 09:02:12;;;;;;;;;;;28.30;56.90;;;;;;4682641;30;20143;-77
2021/06/25 09:04:43;;;;;;;4.90;2.45;;;28.30;56.20;;;;;;4677212;30;20108;-77
2021/06/25 09:07:09;;;;;;;3.13;2.30;;;28.10;56.10;;;;;;4659870;30;20226;-77
2021/06/25 09:09:39;;;;;;;5.60;2.72;;;27.90;56.00;;;;;;4699588;30;20045;-78
2021/06/25 09:12:14;;;;;;;5.00;2.13;;;27.50;56.60;;;;;;4706037;30;20116;-78
2021/06/25 09:15:13;;;;;;;3.03;2.40;;;27.50;58.10;;;;;;4698675;30;20045;-78
2021/06/25 09:17:54;;;;;;;4.10;2.22;;;27.70;57.30;;;;;;4690228;30;20060;-78
2021/06/25 09:20:39;;;;;;;4.50;2.13;;;27.80;57.60;;;;;;4682508;30;20248;-78
2021/06/25 09:23:07;;;;;;;8.70;2.72;;;27.80;57.90;;;;;;4700325;30;20077;-78
2021/06/25 09:25:51;;;;;;;6.22;2.28;;;27.80;57.30;;;;;;4692157;30;20122;-79
2021/06/25 09:28:29;;;;;;;2.03;1.80;;;28.10;57.80;;;;;;4682924;30;20038;-78
2021/06/25 09:30:55;;;;;;;5.38;2.10;;;28.40;55.30;;;;;;4690939;30;20038;-77
2021/06/25 09:33:22;;;;;;;6.45;2.10;;;28.30;56.50;;;;;;4688606;30;20026;-78
2021/06/25 09:35:52;;;;;;;;;;;28.10;56.10;;;;;;4698049;30;20266;-78
2021/06/25 09:38:35;;;;;;;2.78;1.77;;;27.80;57.00;;;;;;4677844;30;20018;-78
2021/06/25 09:41:14;;;;;;;2.92;1.52;;;27.80;57.30;;;;;;4704758;30;20078;-78
2021/06/25 09:43:40;;;;;;;5.07;1.92;;;28.10;57.20;;;;;;4690191;30;20034;-78
2021/06/25 09:46:06;;;;;;;2.13;1.47;;;28.30;55.60;;;;;;4694051;30;20404;-78
2021/06/25 09:48:52;;;;;;;2.17;1.43;;;28.20;56.20;;;;;;4704020;30;20072;-78
2021/06/25 09:51:19;;;;;;;2.08;1.52;;;28.30;56.30;;;;;;4682789;30;20030;-76
2021/06/25 09:54:15;;;;;;;9.45;1.90;;;28.60;55.80;;;;;;4701552;30;20033;-76
2021/06/25 09:57:13;;;;;;;2.42;1.40;;;28.90;56.50;;;;;;4687975;30;20241;-76
2021/06/25 10:02:20;;;;;;;1.58;1.27;;;29.30;54.00;;;;;;4686466;30;20045;-76
2021/06/25 10:04:57;;;;;;;6.60;1.65;;;29.20;53.30;;;;;;4672838;30;20061;-76
2021/06/25 10:07:31;;;;;;;4.07;1.30;;;29.20;53.10;;;;;;4687844;30;20268;-75
2021/06/25 10:10:06;;;;;;;3.08;1.30;;;29.10;53.50;;;;;;4692326;30;20045;-76
2021/06/25 10:12:37;;;;;;;3.60;1.33;;;29.10;52.60;;;;;;4692534;30;20042;-76
2021/06/25 10:15:03;;;;;;;1.25;1.15;;;29.40;54.00;;;;;;4692261;30;20041;-76
2021/06/25 10:17:30;;;;;;;2.33;1.10;;;29.30;52.60;;;;;;4691865;30;20277;-76
2021/06/25 10:20:08;;;;;;;4.78;0.98;;;29.30;51.60;;;;;;4677450;30;20034;-76
2021/06/25 10:22:36;;;;;;;3.78;1.10;;;29.30;52.00;;;;;;4674810;30;20034;-76
2021/06/25 10:25:05;;;;;;;2.38;0.93;;;29.40;52.60;;;;;;4671584;30;20031;-76
2021/06/25 10:27:32;;;;;;;5.93;1.40;;;29.20;51.60;;;;;;4689920;30;20050;-76
2021/06/25 10:29:58;;;;;;;;;;;29.30;52.50;;;;;;4674290;30;20038;-76
2021/06/25 10:32:24;;;;;;;3.42;1.20;;;29.40;53.00;;;;;;4689412;30;20131;-75
2021/06/25 10:34:50;;;;;;;1.73;1.23;;;29.60;53.30;;;;;;4706693;30;20056;-76
2021/06/25 10:37:21;;;;;;;3.60;1.23;;;29.60;51.70;;;;;;4693544;30;20109;-76
2021/06/25 10:39:48;;;;;;;5.32;1.50;;;29.50;52.40;;;;;;4684781;30;20382;-76
2021/06/25 10:42:15;;;;;;;2.33;1.40;;;29.30;52.20;;;;;;4689445;30;20034;-76
2021/06/25 10:44:45;;;;;;;5.40;2.03;;;29.20;52.00;;;;;;4700303;30;20041;-76
2021/06/25 10:47:28;;;;;;;4.88;1.45;;;28.90;52.70;;;;;;4691824;30;20054;-76
2021/06/25 10:50:03;;;;;;;6.25;1.08;;;28.50;53.80;;;;;;4678588;30;20043;-76
2021/06/25 10:52:40;;;;;;;2.97;1.05;;;28.20;53.40;;;;;;4679559;30;20096;-76
2021/06/25 10:55:16;;;;;;;2.60;1.35;;;28.10;54.40;;;;;;4684414;30;20144;-73
2021/06/25 10:57:54;;;;;;;10.63;2.05;;;28.10;55.00;;;;;;4684793;30;20048;-73
2021/06/25 11:00:28;;;;;;;1.10;0.98;;;28.10;54.50;;;;;;4678217;30;20026;-73
2021/06/25 11:02:54;;;;;;;1.23;0.98;;;28.20;54.70;;;;;;4688926;30;20357;-74
2021/06/25 11:05:26;;;;;;;2.20;1.20;;;28.10;54.80;;;;;;4676038;30;20085;-73
2021/06/25 11:08:21;;;;;;;4.88;1.42;;;28.00;53.70;;;;;;4694872;30;20326;-73
2021/06/25 11:10:56;;;;;;;2.37;1.30;;;27.90;54.60;;;;;;4677522;30;20045;-74
2021/06/25 11:13:24;;;;;;;4.30;1.45;;;28.00;54.00;;;;;;4678280;30;20340;-75
2021/06/25 11:15:53;;;;;;;3.33;1.63;;;28.10;54.70;;;;;;4699179;30;20207;-76
2021/06/25 11:18:28;;;;;;;2.33;1.10;;;28.40;53.80;;;;;;4695974;30;20041;-77
2021/06/25 11:21:00;;;;;;;2.33;1.33;;;28.70;53.00;;;;;;4691123;30;20062;-77
2021/06/25 11:23:28;;;;;;;6.93;1.10;;;28.70;52.40;;;;;;4707479;30;20131;-77
2021/06/25 11:25:59;;;;;;;2.03;1.25;;;28.50;53.20;;;;;;4688015;30;20069;-77
2021/06/25 11:28:31;;;;;;;9.50;1.63;;;28.40;53.90;;;;;;4690202;30;20070;-77
2021/06/25 11:31:04;;;;;;;8.18;1.60;;;28.30;53.60;;;;;;4704482;30;20034;-76
2021/06/25 11:33:36;;;;;;;4.55;1.20;;;28.20;53.20;;;;;;4698188;30;20038;-77
2021/06/25 11:36:14;;;;;;;1.73;1.30;;;28.10;53.00;;;;;;4687097;30;20097;-77
2021/06/25 11:39:00;;;;;;;2.97;1.13;;;28.00;52.70;;;;;;4688605;30;20084;-77
2021/06/25 11:41:26;;;;;;;;;;;28.10;53.60;;;;;;4689972;30;20042;-77
2021/06/25 11:43:54;;;;;;;2.05;1.52;;;28.20;53.40;;;;;;4682513;30;20183;-77
2021/06/25 11:46:20;;;;;;;4.75;1.80;;;28.30;53.10;;;;;;4689384;30;20042;-76
2021/06/25 11:48:47;;;;;;;1.88;1.20;;;28.60;53.30;;;;;;4680801;30;20241;-77
2021/06/25 11:51:15;;;;;;;2.55;1.50;;;28.90;53.70;;;;;;4682920;30;20034;-76
2021/06/25 11:53:42;;;;;;;11.57;1.55;;;29.30;52.80;;;;;;4677019;30;20027;-77
2021/06/25 11:56:19;;;;;;;3.45;0.98;;;29.70;52.50;;;;;;4699473;30;20098;-77
2021/06/25 11:58:59;;;;;;;1.17;1.00;;;29.60;50.50;;;;;;4696955;30;20054;-77
2021/06/25 12:01:26;;;;;;;1.45;1.15;;;29.40;51.40;;;;;;4681842;30;20068;-78
2021/06/25 12:03:53;;;;;;;4.53;1.30;;;29.30;50.80;;;;;;4681533;30;20076;-77
2021/06/25 12:06:20;;;;;;;2.33;0.93;;;29.20;50.70;;;;;;4683142;30;20042;-76
2021/06/25 12:08:54;;;;;;;1.67;1.25;;;29.20;50.70;;;;;;4694917;30;20397;-76
2021/06/25 12:11:23;;;;;;;1.30;1.02;;;29.20;51.00;;;;;;4676074;30;20034;-77
2021/06/25 12:14:09;;;;;;;3.10;0.82;;;29.20;49.90;;;;;;4693219;30;20041;-77
2021/06/25 12:16:39;;;;;;;;;;;29.10;49.50;;;;;;4696312;30;20361;-77
2021/06/25 12:19:11;;;;;;;1.20;1.08;;;29.00;51.20;;;;;;4695340;30;20087;-77
2021/06/25 12:21:38;;;;;;;2.20;1.10;;;28.90;51.10;;;;;;4700118;30;20048;-77
2021/06/25 12:24:04;;;;;;;2.55;1.10;;;29.10;51.70;;;;;;4680480;30;20042;-77
2021/06/25 12:26:30;;;;;;;;;;;29.00;50.70;;;;;;4695727;30;20080;-77
2021/06/25 12:29:02;;;;;;;4.07;1.33;;;28.80;50.30;;;;;;4691759;30;19915;-77
2021/06/25 12:31:34;;;;;;;4.78;1.20;;;28.90;51.50;;;;;;4676327;30;20278;-77
2021/06/25 12:34:16;;;;;;;1.52;1.20;;;28.90;50.80;;;;;;4685500;30;20054;-77
2021/06/25 12:36:43;;;;;;;3.42;1.20;;;29.10;51.20;;;;;;4674608;30;20034;-77
2021/06/25 12:39:10;;;;;;;;;;;29.20;50.70;;;;;;4688915;30;20057;-77
2021/06/25 12:41:47;;;;;;;1.80;1.10;;;29.20;49.70;;;;;;4706730;30;19998;-77
2021/06/25 12:44:13;;;;;;;5.85;1.50;;;29.20;50.40;;;;;;4695117;30;20052;-77
2021/06/25 12:46:40;;;;;;;3.50;1.30;;;29.10;50.10;;;;;;4701080;30;20058;-77
2021/06/25 12:49:07;;;;;;;3.08;1.42;;;29.00;50.40;;;;;;4682635;30;20050;-77
2021/06/25 12:51:34;;;;;;;;;;;29.00;50.80;;;;;;4699927;30;20088;-77
2021/06/25 12:54:00;;;;;;;2.95;1.48;;;29.00;50.70;;;;;;4706712;30;19912;-76
2021/06/25 12:56:32;;;;;;;3.33;1.23;;;28.80;51.10;;;;;;4702664;30;20064;-77
2021/06/25 12:58:59;;;;;;;1.92;1.33;;;28.80;51.70;;;;;;4695341;30;20298;-76
2021/06/25 13:01:37;;;;;;;6.82;1.55;;;28.70;51.80;;;;;;4692305;30;20034;-76
2021/06/25 13:04:17;;;;;;;1.30;1.20;;;28.70;51.20;;;;;;4678188;30;20026;-77
2021/06/25 13:06:47;;;;;;;4.13;1.45;;;28.70;52.40;;;;;;4702822;30;20072;-78
2021/06/25 13:09:22;;;;;;;4.65;1.50;;;28.30;51.20;;;;;;4702705;30;20034;-77
2021/06/25 13:11:50;;;;;;;1.52;1.15;;;28.20;51.50;;;;;;4690049;30;20041;-76
2021/06/25 13:14:30;;;;;;;2.08;1.55;;;28.10;52.30;;;;;;4689270;30;20131;-76
2021/06/25 13:17:06;;;;;;;4.45;1.65;;;28.00;51.70;;;;;;4680641;30;20034;-77
2021/06/25 13:19:38;;;;;;;2.78;1.58;;;28.00;53.00;;;;;;4689559;30;20062;-76
2021/06/25 13:22:45;;;;;;;3.28;1.55;;;28.10;53.60;;;;;;4684171;30;20472;-77
2021/06/25 13:25:32;;;;;;;7.53;1.90;;;28.10;52.30;;;;;;4641429;31;20463;-76
2021/06/25 13:27:58;;;;;;;1.70;1.33;;;28.20;52.50;;;;;;4628005;31;20051;-76
2021/06/25 13:30:26;;;;;;;1.70;1.40;;;28.10;52.20;;;;;;4636765;31;20099;-76
2021/06/25 13:32:55;;;;;;;5.88;1.63;;;28.00;52.00;;;;;;4641754;31;20038;-77
2021/06/25 13:35:37;;;;;;;2.63;1.40;;;27.80;53.00;;;;;;4625700;31;20043;-77
2021/06/25 13:38:14;;;;;;;3.08;1.58;;;27.60;53.20;;;;;;4642068;31;20043;-76
2021/06/25 13:40:55;;;;;;;2.80;2.38;;;27.70;53.70;;;;;;4637625;31;20027;-76
2021/06/25 13:43:23;;;;;;;4.53;2.40;;;27.60;54.00;;;;;;4640158;31;20046;-77
2021/06/25 13:45:50;;;;;;;1.90;1.70;;;27.50;53.70;;;;;;4608737;31;20035;-76
2021/06/25 13:48:22;;;;;;;5.88;2.03;;;27.40;53.70;;;;;;4627298;31;20166;-76
2021/06/25 13:51:01;;;;;;;2.17;1.50;;;27.30;54.40;;;;;;4641520;31;20035;-76
2021/06/25 13:53:35;;;;;;;3.63;1.75;;;27.10;55.40;;;;;;4635313;31;20040;-76
2021/06/25 13:56:05;;;;;;;1.90;1.60;;;27.00;55.10;;;;;;4627847;31;20039;-76
2021/06/25 13:58:32;;;;;;;1.70;1.60;;;27.10;55.50;;;;;;4627424;31;20047;-76
2021/06/25 14:01:01;;;;;;;2.42;1.60;;;27.00;55.30;;;;;;4656178;30;20050;-76
2021/06/25 14:03:29;;;;;;;2.00;1.50;;;26.90;55.50;;;;;;4698479;30;20060;-77
2021/06/25 14:06:05;;;;;;;2.30;1.42;;;26.80;55.40;;;;;;4701242;30;20057;-77
2021/06/25 14:08:45;;;;;;;1.80;1.60;;;26.80;56.20;;;;;;4687684;30;20338;-76
2021/06/25 14:11:15;;;;;;;4.47;1.50;;;26.70;56.30;;;;;;4673920;30;20348;-76
2021/06/25 14:13:43;;;;;;;2.22;1.15;;;26.50;56.50;;;;;;4702521;30;20034;-77
2021/06/25 14:16:26;;;;;;;5.15;1.35;;;26.50;56.30;;;;;;4684752;30;20026;-76
2021/06/25 14:18:56;;;;;;;4.00;1.65;;;26.40;56.30;;;;;;4704110;30;20038;-76
2021/06/25 14:21:28;;;;;;;2.35;1.15;;;26.40;56.90;;;;;;4681723;30;20042;-76
2021/06/25 14:23:54;;;;;;;1.33;1.10;;;26.30;56.70;;;;;;4688210;30;20053;-76
2021/06/25 14:26:21;;;;;;;3.87;1.40;;;26.30;57.20;;;;;;4699431;30;20040;-76
2021/06/25 14:28:47;;;;;;;2.85;1.17;;;26.20;57.90;;;;;;4698169;30;20046;-76
2021/06/25 14:31:14;;;;;;;1.57;1.10;;;26.00;57.30;;;;;;4677172;30;20034;-78
2021/06/25 14:33:40;;;;;;;2.08;1.10;;;25.90;57.40;;;;;;4694133;30;20057;-76
2021/06/25 14:36:06;;;;;;;6.43;1.17;;;25.90;57.50;;;;;;4684893;30;20085;-76
2021/06/25 14:38:33;;;;;;;1.10;1.00;;;25.80;57.40;;;;;;4689464;30;20070;-78
2021/06/25 14:40:59;;;;;;;;;;;25.70;57.60;;;;;;4697693;30;20600;-78
2021/06/25 14:43:25;;;;;;;1.88;0.90;;;25.60;57.70;;;;;;4683516;30;19919;-78
2021/06/25 14:45:52;;;;;;;1.67;1.20;;;25.60;58.20;;;;;;4703458;30;20037;-75
2021/06/25 14:48:18;;;;;;;4.00;1.40;;;25.50;58.40;;;;;;4700658;30;20042;-75
2021/06/25 14:50:44;;;;;;;2.55;1.20;;;25.60;58.80;;;;;;4685796;30;20022;-76
2021/06/25 14:53:10;;;;;;;4.50;1.20;;;25.50;58.50;;;;;;4684964;30;20026;-75
2021/06/25 14:55:36;;;;;;;1.40;1.30;;;25.50;58.50;;;;;;4700244;30;20324;-76
2021/06/25 14:58:04;;;;;;;2.30;1.60;;;25.60;58.70;;;;;;4697707;30;20113;-76
2021/06/25 15:00:29;;;;;;;2.20;1.52;;;25.60;59.10;;;;;;4690916;30;20037;-76
2021/06/25 15:02:55;;;;;;;1.45;1.30;;;25.50;58.60;;;;;;4700133;30;20051;-76
2021/06/25 15:05:21;;;;;;;1.92;1.27;;;25.50;58.60;;;;;;4681558;30;20030;-76
2021/06/25 15:07:47;;;;;;;2.63;1.30;;;25.40;58.60;;;;;;4700992;30;20042;-76
2021/06/25 15:10:13;;;;;;;4.75;1.25;;;25.40;59.00;;;;;;4694059;30;20309;-76
2021/06/25 15:12:39;;;;;;;2.97;1.13;;;25.30;58.80;;;;;;4685927;30;20041;-75
2021/06/25 15:15:05;;;;;;;5.35;1.40;;;25.40;58.90;;;;;;4670283;30;20030;-75
2021/06/25 15:17:31;;;;;;;4.32;1.15;;;25.40;58.90;;;;;;4687132;30;20213;-76
2021/06/25 15:19:58;;;;;;;1.80;1.17;;;25.40;59.10;;;;;;4677962;30;20034;-76
2021/06/25 15:22:24;;;;;;;4.40;1.35;;;25.50;59.30;;;;;;4680422;30;20023;-76
2021/06/25 15:24:50;;;;;;;1.35;0.98;;;25.40;58.60;;;;;;4699999;30;20121;-75
2021/06/25 15:27:17;;;;;;;4.95;1.00;;;25.40;58.70;;;;;;4702788;30;20038;-76
2021/06/25 15:29:42;;;;;;;4.72;1.60;;;25.30;58.50;;;;;;4676509;30;20081;-75
2021/06/25 15:32:08;;;;;;;2.80;1.00;;;25.30;59.00;;;;;;4696052;30;20026;-75
2021/06/25 15:34:34;;;;;;;2.28;1.00;;;25.30;59.00;;;;;;4705314;30;20038;-75
2021/06/25 15:37:00;;;;;;;2.58;1.42;;;25.40;59.80;;;;;;4691629;30;20105;-75
2021/06/25 15:39:26;;;;;;;1.70;1.30;;;25.50;59.60;;;;;;4706218;30;20041;-76
2021/06/25 15:41:52;;;;;;;2.65;1.92;;;25.50;59.20;;;;;;4682060;30;20034;-75
2021/06/25 15:44:17;;;;;;;4.53;1.50;;;25.50;59.30;;;;;;4694726;30;20209;-75
2021/06/25 15:46:43;;;;;;;3.15;1.42;;;25.50;59.00;;;;;;4688144;30;20132;-75
2021/06/25 15:49:09;;;;;;;5.70;1.38;;;25.40;59.10;;;;;;4680740;30;20093;-75
2021/06/25 15:51:35;;;;;;;1.25;0.80;;;25.40;58.70;;;;;;4686091;30;20309;-76
2021/06/25 15:54:02;;;;;;;1.15;0.90;;;25.40;58.90;;;;;;4683592;30;20370;-76
2021/06/25 15:56:28;;;;;;;;;;;25.40;58.70;;;;;;4690362;30;20041;-76
2021/06/25 15:58:53;;;;;;;1.63;0.90;;;25.40;58.90;;;;;;4678247;30;19911;-76